(°C)
(°C)
-0°
-1°
-1°
სსდ
სამხრ.
სამხრ.
სამხრ.
სსდ
სსდ
სსდ
(კმ/სთ)
17-29
13-27
13-25
12-25
11-21
13-21
15-26
(მმ)
1
0
0
0
0
0
0
(%)
37
6
0
0
0
0
0

მზის სიმაღლე

/ 7.3°
sun-icon
UV 1
07:18
16:01
ახალგაზრდა მთვარე (320°)
03:14
14:24

METAR Ivanka pri Dunaji (LZIB)-თვის

დრო პირობები ტემპერატურა/
ნამი
ქარი ხილვადობა ამინდი ღრუბლები წნევა ცვლილება დაუმუშავებელი
VFR 6°C / 3°C 160º variable 130º to 200º 3kt >10km - Few Clouds 1000ft 1004 No Significant change LZIB 011330Z 16003KT 130V200 9999 FEW010 06/03 Q1004 NOSIG
VFR 6°C / 2°C 180º 8kt >10km - Few Clouds 1000ft 1004 No Significant change LZIB 011300Z 18008KT 9999 FEW010 06/02 Q1004 NOSIG
VFR 6°C / 3°C 190º 9kt >10km Light Rain 1.00mm precipitation Vertical Visibility of 0ft. 1004 No Significant change LZIB 011230Z 19009KT 9999 -RA FEW006 06/03 Q1004 NOSIG
VFR 6°C / 4°C 180º 8kt >10km Light Rain 1.00mm precipitation Vertical Visibility of 0ft. 1005 No Significant change LZIB 011200Z 18008KT 9999 -RA FEW006 06/04 Q1005 NOSIG
VFR 6°C / 5°C 200º 8kt >10km Light Rain 1.00mm precipitation Vertical Visibility of 0ft. 1005 No Significant change LZIB 011130Z 20008KT 9999 -RA FEW005 06/05 Q1005 NOSIG
VFR 6°C / 5°C 180º 9kt >10km Light Rain 1.00mm precipitation Vertical Visibility of 0ft. 1006 No Significant change LZIB 011100Z 18009KT 9999 -RA FEW005 06/05 Q1006 NOSIG
VFR 6°C / 5°C 210º 6kt >10km Light Rain 1.00mm precipitation Vertical Visibility of 0ft.
Scattered Clouds 4900ft
1006 No Significant change LZIB 011030Z 21006KT 9999 -RA FEW005 SCT049 06/05 Q1006 NOSIG
VFR 6°C / 6°C 210º variable 180º to 240º 4kt >10km Light Rain 1.00mm precipitation Vertical Visibility of 0ft.
Scattered Clouds 1400ft
1006 No Significant change LZIB 011000Z 21004KT 180V240 9999 -RA FEW005 SCT014 06/06 Q1006 NOSIG
VFR 6°C / 5°C 220º 4kt >10km Light Rain 1.00mm precipitation Vertical Visibility of 0ft. 1007 No Significant change LZIB 010930Z 22004KT 9999 -RA FEW004 06/05 Q1007 NOSIG
VFR 6°C / 5°C 220º 6kt >10km Light Rain 1.00mm precipitation Vertical Visibility of 0ft.
Scattered Clouds 1500ft
Broken Clouds 4900ft
1007 No Significant change LZIB 010900Z 22006KT 9999 -RA FEW004 SCT015 BKN049 06/05 Q1007 NOSIG
MVFR 6°C / 5°C 210º 5kt 8000m Light Rain 1.00mm precipitation Vertical Visibility of 0ft.
Scattered Clouds 2500ft
Overcast 4500ft
1007 No Significant change LZIB 010830Z 21005KT 8000 -RA FEW014 SCT025 OVC045 06/05 Q1007 NOSIG
MVFR 5°C / 4°C 220º 5kt 8000m Light Rain 1.00mm precipitation Vertical Visibility of 0ft.
Scattered Clouds 2700ft
Overcast 4200ft
1008 No Significant change LZIB 010800Z 22005KT 8000 -RA FEW015 SCT027 OVC042 05/04 Q1008 NOSIG
VFR 6°C / 4°C 240º 6kt >10km - Scattered Clouds 2500ft
Broken Clouds 4700ft
1008 No Significant change LZIB 010730Z 24006KT 9999 SCT025 BKN047 06/04 Q1008 NOSIG
VFR 6°C / 3°C 230º 8kt >10km Light Rain 1.00mm precipitation Vertical Visibility of 0ft.
Broken Clouds 4700ft
1008 No Significant change LZIB 010700Z 23008KT 9999 -RA FEW020 BKN047 06/03 Q1008 NOSIG
VFR 6°C / 3°C 250º 6kt >10km Light Rain 1.00mm precipitation Vertical Visibility of 0ft.
Broken Clouds 4000ft
1008 No Significant change LZIB 010630Z 25006KT 9999 -RA SCT033 BKN040 06/03 Q1008 NOSIG
VFR 4°C / 2°C 190º 4kt >10km - Broken Clouds 3700ft 1008 No Significant change LZIB 010600Z 19004KT 9999 BKN037 04/02 Q1008 NOSIG
VFR 5°C / 2°C 220º 3kt >10km - Few Clouds 2000ft
Broken Clouds 3700ft
1008 No Significant change LZIB 010530Z 22003KT 9999 FEW020 BKN037 05/02 Q1008 NOSIG
VFR 6°C / 2°C 250º 5kt >10km - Few Clouds 2000ft
Broken Clouds 3500ft
1008 No Significant change LZIB 010500Z 25005KT 9999 FEW020 BKN035 06/02 Q1008 NOSIG
VFR 6°C / 2°C 210º variable 170º to 250º 7kt >10km - Scattered Clouds 2100ft
Broken Clouds 3100ft
1007 - LZIB 010430Z 21007KT 170V250 9999 SCT021 BKN031 06/02 Q1007
VFR 6°C / 2°C variable 4kt >10km - Few Clouds 2300ft
Scattered Clouds 3300ft
1007 - LZIB 010400Z VRB04KT 9999 FEW023 SCT033 06/02 Q1007
VFR 6°C / 2°C 320º variable 260º to 040º 6kt Gust 16kt >10km - Few Clouds 2400ft
Scattered Clouds 3800ft
1007 - LZIB 010330Z 32006G16KT 260V040 9999 FEW024 SCT038 06/02 Q1007
VFR 6°C / 1°C 310º variable 260º to 330º 11kt Gust 24kt >10km - Scattered Clouds 2700ft
Broken Clouds 3500ft
1007 - LZIB 010300Z 31011G24KT 260V330 9999 SCT027 BKN035 06/01 Q1007
VFR 6°C / 1°C 300º variable 210º to 340º 9kt Gust 19kt >10km - Few Clouds 2700ft
Broken Clouds 3500ft
1007 - LZIB 010230Z 30009G19KT 210V340 9999 FEW027 BKN035 06/01 Q1007
VFR 6°C / 1°C 290º variable 220º to 340º 8kt Gust 20kt >10km - Few Clouds 2700ft
Broken Clouds 3600ft
1007 - LZIB 010200Z 29008G20KT 220V340 9999 FEW027 BKN036 06/01 Q1007

VFR

6°C / 3°C

[მეტი]
ქარი 160º variable 130º to 200º 3kt
ხილვადობა >10km
ამინდი -
ღრუბლები Few Clouds 1000ft
წნევა 1004
ცვლილება No Significant change
დაუმუშავებელი LZIB 011330Z 16003KT 130V200 9999 FEW010 06/03 Q1004 NOSIG

VFR

6°C / 2°C

[მეტი]
ქარი 180º 8kt
ხილვადობა >10km
ამინდი -
ღრუბლები Few Clouds 1000ft
წნევა 1004
ცვლილება No Significant change
დაუმუშავებელი LZIB 011300Z 18008KT 9999 FEW010 06/02 Q1004 NOSIG

VFR

6°C / 3°C

[მეტი]
ქარი 190º 9kt
ხილვადობა >10km
ამინდი Light Rain 1.00mm precipitation
ღრუბლები Vertical Visibility of 0ft.
წნევა 1004
ცვლილება No Significant change
დაუმუშავებელი LZIB 011230Z 19009KT 9999 -RA FEW006 06/03 Q1004 NOSIG

VFR

6°C / 4°C

[მეტი]
ქარი 180º 8kt
ხილვადობა >10km
ამინდი Light Rain 1.00mm precipitation
ღრუბლები Vertical Visibility of 0ft.
წნევა 1005
ცვლილება No Significant change
დაუმუშავებელი LZIB 011200Z 18008KT 9999 -RA FEW006 06/04 Q1005 NOSIG

VFR

6°C / 5°C

[მეტი]
ქარი 200º 8kt
ხილვადობა >10km
ამინდი Light Rain 1.00mm precipitation
ღრუბლები Vertical Visibility of 0ft.
წნევა 1005
ცვლილება No Significant change
დაუმუშავებელი LZIB 011130Z 20008KT 9999 -RA FEW005 06/05 Q1005 NOSIG

VFR

6°C / 5°C

[მეტი]
ქარი 180º 9kt
ხილვადობა >10km
ამინდი Light Rain 1.00mm precipitation
ღრუბლები Vertical Visibility of 0ft.
წნევა 1006
ცვლილება No Significant change
დაუმუშავებელი LZIB 011100Z 18009KT 9999 -RA FEW005 06/05 Q1006 NOSIG

VFR

6°C / 5°C

[მეტი]
ქარი 210º 6kt
ხილვადობა >10km
ამინდი Light Rain 1.00mm precipitation
ღრუბლები Vertical Visibility of 0ft.
Scattered Clouds 4900ft
წნევა 1006
ცვლილება No Significant change
დაუმუშავებელი LZIB 011030Z 21006KT 9999 -RA FEW005 SCT049 06/05 Q1006 NOSIG

VFR

6°C / 6°C

[მეტი]
ქარი 210º variable 180º to 240º 4kt
ხილვადობა >10km
ამინდი Light Rain 1.00mm precipitation
ღრუბლები Vertical Visibility of 0ft.
Scattered Clouds 1400ft
წნევა 1006
ცვლილება No Significant change
დაუმუშავებელი LZIB 011000Z 21004KT 180V240 9999 -RA FEW005 SCT014 06/06 Q1006 NOSIG

VFR

6°C / 5°C

[მეტი]
ქარი 220º 4kt
ხილვადობა >10km
ამინდი Light Rain 1.00mm precipitation
ღრუბლები Vertical Visibility of 0ft.
წნევა 1007
ცვლილება No Significant change
დაუმუშავებელი LZIB 010930Z 22004KT 9999 -RA FEW004 06/05 Q1007 NOSIG

VFR

6°C / 5°C

[მეტი]
ქარი 220º 6kt
ხილვადობა >10km
ამინდი Light Rain 1.00mm precipitation
ღრუბლები Vertical Visibility of 0ft.
Scattered Clouds 1500ft
Broken Clouds 4900ft
წნევა 1007
ცვლილება No Significant change
დაუმუშავებელი LZIB 010900Z 22006KT 9999 -RA FEW004 SCT015 BKN049 06/05 Q1007 NOSIG

MVFR

6°C / 5°C

[მეტი]
ქარი 210º 5kt
ხილვადობა 8000m
ამინდი Light Rain 1.00mm precipitation
ღრუბლები Vertical Visibility of 0ft.
Scattered Clouds 2500ft
Overcast 4500ft
წნევა 1007
ცვლილება No Significant change
დაუმუშავებელი LZIB 010830Z 21005KT 8000 -RA FEW014 SCT025 OVC045 06/05 Q1007 NOSIG

MVFR

5°C / 4°C

[მეტი]
ქარი 220º 5kt
ხილვადობა 8000m
ამინდი Light Rain 1.00mm precipitation
ღრუბლები Vertical Visibility of 0ft.
Scattered Clouds 2700ft
Overcast 4200ft
წნევა 1008
ცვლილება No Significant change
დაუმუშავებელი LZIB 010800Z 22005KT 8000 -RA FEW015 SCT027 OVC042 05/04 Q1008 NOSIG

VFR

6°C / 4°C

[მეტი]
ქარი 240º 6kt
ხილვადობა >10km
ამინდი -
ღრუბლები Scattered Clouds 2500ft
Broken Clouds 4700ft
წნევა 1008
ცვლილება No Significant change
დაუმუშავებელი LZIB 010730Z 24006KT 9999 SCT025 BKN047 06/04 Q1008 NOSIG

VFR

6°C / 3°C

[მეტი]
ქარი 230º 8kt
ხილვადობა >10km
ამინდი Light Rain 1.00mm precipitation
ღრუბლები Vertical Visibility of 0ft.
Broken Clouds 4700ft
წნევა 1008
ცვლილება No Significant change
დაუმუშავებელი LZIB 010700Z 23008KT 9999 -RA FEW020 BKN047 06/03 Q1008 NOSIG

VFR

6°C / 3°C

[მეტი]
ქარი 250º 6kt
ხილვადობა >10km
ამინდი Light Rain 1.00mm precipitation
ღრუბლები Vertical Visibility of 0ft.
Broken Clouds 4000ft
წნევა 1008
ცვლილება No Significant change
დაუმუშავებელი LZIB 010630Z 25006KT 9999 -RA SCT033 BKN040 06/03 Q1008 NOSIG

VFR

4°C / 2°C

[მეტი]
ქარი 190º 4kt
ხილვადობა >10km
ამინდი -
ღრუბლები Broken Clouds 3700ft
წნევა 1008
ცვლილება No Significant change
დაუმუშავებელი LZIB 010600Z 19004KT 9999 BKN037 04/02 Q1008 NOSIG

VFR

5°C / 2°C

[მეტი]
ქარი 220º 3kt
ხილვადობა >10km
ამინდი -
ღრუბლები Few Clouds 2000ft
Broken Clouds 3700ft
წნევა 1008
ცვლილება No Significant change
დაუმუშავებელი LZIB 010530Z 22003KT 9999 FEW020 BKN037 05/02 Q1008 NOSIG

VFR

6°C / 2°C

[მეტი]
ქარი 250º 5kt
ხილვადობა >10km
ამინდი -
ღრუბლები Few Clouds 2000ft
Broken Clouds 3500ft
წნევა 1008
ცვლილება No Significant change
დაუმუშავებელი LZIB 010500Z 25005KT 9999 FEW020 BKN035 06/02 Q1008 NOSIG

VFR

6°C / 2°C

[მეტი]
ქარი 210º variable 170º to 250º 7kt
ხილვადობა >10km
ამინდი -
ღრუბლები Scattered Clouds 2100ft
Broken Clouds 3100ft
წნევა 1007
ცვლილება -
დაუმუშავებელი LZIB 010430Z 21007KT 170V250 9999 SCT021 BKN031 06/02 Q1007

VFR

6°C / 2°C

[მეტი]
ქარი variable 4kt
ხილვადობა >10km
ამინდი -
ღრუბლები Few Clouds 2300ft
Scattered Clouds 3300ft
წნევა 1007
ცვლილება -
დაუმუშავებელი LZIB 010400Z VRB04KT 9999 FEW023 SCT033 06/02 Q1007

VFR

6°C / 2°C

[მეტი]
ქარი 320º variable 260º to 040º 6kt Gust 16kt
ხილვადობა >10km
ამინდი -
ღრუბლები Few Clouds 2400ft
Scattered Clouds 3800ft
წნევა 1007
ცვლილება -
დაუმუშავებელი LZIB 010330Z 32006G16KT 260V040 9999 FEW024 SCT038 06/02 Q1007

VFR

6°C / 1°C

[მეტი]
ქარი 310º variable 260º to 330º 11kt Gust 24kt
ხილვადობა >10km
ამინდი -
ღრუბლები Scattered Clouds 2700ft
Broken Clouds 3500ft
წნევა 1007
ცვლილება -
დაუმუშავებელი LZIB 010300Z 31011G24KT 260V330 9999 SCT027 BKN035 06/01 Q1007

VFR

6°C / 1°C

[მეტი]
ქარი 300º variable 210º to 340º 9kt Gust 19kt
ხილვადობა >10km
ამინდი -
ღრუბლები Few Clouds 2700ft
Broken Clouds 3500ft
წნევა 1007
ცვლილება -
დაუმუშავებელი LZIB 010230Z 30009G19KT 210V340 9999 FEW027 BKN035 06/01 Q1007

VFR

6°C / 1°C

[მეტი]
ქარი 290º variable 220º to 340º 8kt Gust 20kt
ხილვადობა >10km
ამინდი -
ღრუბლები Few Clouds 2700ft
Broken Clouds 3600ft
წნევა 1007
ცვლილება -
დაუმუშავებელი LZIB 010200Z 29008G20KT 220V340 9999 FEW027 BKN036 06/01 Q1007

TAF Ivanka pri Dunaji (LZIB)-თვის

From till


From till Wind 210º 7kt. Visibility 10km or more. Few Clouds 1000ft. Scattered Clouds 4500ft.
Temporarly from till Light Rain . Scattered Clouds 500ft. Broken Clouds 1400ft.
With 30% probability, Temporarly from till Wind variable 2kt. Visibility 5000m. Light Rain Mist . Scattered Clouds 300ft. Broken Clouds 1300ft.

დაუმუშავებელი: TAF LZIB 011100Z 0112/0212 21007KT 9999 FEW010 SCT045 TEMPO 0112/0115 -RA SCT005 BKN014 PROB30 TEMPO 0121/0202 VRB02KT 5000 -RA BR SCT003 BKN013

მიმდინარე სატელიტისა და წვიმის სურათები Ivanka pri Dunaji-თვის, სლოვაკეთი

ლოკაციის მარკერი დაყენებყლია Ivanka pri Dunajiზე. [მეტი]

რეალურ დროში სატელიტური სურათი აერთიანებს ხილულ სინათლეს დღისით ღამის განმავლობაში ინფრაწითელ გამოსხივებასთან ერთად. ღამით, სურათი არ არის მუქი, რადგან ინფრაწითელ გამოსხივებას შეუძლია ტემპერატურის განსხვავებების დადგენა. სამწუხაროდ, დაბალი ღრუბლები და ნისლი ძნელია განასხვავონ მიწის ტემპერატურისგან და, შესაბამისად, ისინი შეიძლება თითქმის არ ჩანდეს ღამით. Meteosat სატელიტური გამოსახულება ევროპისთვის ახლდება რეალურ დროში ყოველ 5 წუთში. GOES-16/GOES-17 (ჩრდილოეთი და სამხრეთ ამერიკა) და ჰიმავარი (აზია) გამოსახულებები ახლდება ყოველ 10 წუთში.

ნალექიანობა განისაზღვრება რადარიდან ან სატელიტიდან. ღამით ნალექიანობის განსაზღვრა სატელიტიდან ნაკლებად ზუსტია ვიდრე დღისით. ნარინჯისფერი ჯვრები აღნიშნავს ადგილებს, სადაც ელვა იყო დაფიქსირებული (ევროპაზე).

საავტორო უფლებები 2021 EUMETSAT / meteoblue. ელვის შესახებ მონაცემები მოწოდებული nowcast მიერ.

რადარის და ნალექების მაჩვენებელი Ivanka pri Dunaji -თვის

გაწურეთ
Მსუბუქი
ზომიერი
Მძიმე
Ძალიან მძიმე
სეტყვა

მდებარეობის მარკერი მოთავსებულია Ivanka pri Dunaji -ზე. ეს ანიმაცია აჩვენებს ნალექების სარადარო მონაცემებს როგორც ბოლო საათის განმავლობაში, ასევე 1h პროგნოზს. წვიმა ან თოვლის მსუბუქი ვარდნა შეიძლება უჩინარი იყოს რადარისთვის. ნალექების ინტენსივობა არის კოდირებული ფერით, დაწყებული ღია ლურჯიდან ნარინჯისფერამდე.